Time;durP1;ratioP1;P1;durP2;ratioP2;P2;SDS_P1;SDS_P2;PMS_P1;PMS_P2;Temp;Humidity;BMP_temperature;BMP_pressure;BME280_temperature;BME280_humidity;BME280_pressure;Samples;Min_cycle;Max_cycle;Signal;HPM_P1;HPM_P2
2024/03/24 16:48:56;;;;;;;12.63;3.30;;;;;;;;;;5077713;27;80390;-59
2024/03/24 16:51:22;;;;;;;4.93;1.83;;;;;;;;;;5075223;27;80554;-59
2024/03/24 16:53:47;;;;;;;6.97;1.47;;;;;;;;;;5076169;27;81038;-54
2024/03/24 16:56:12;;;;;;;5.73;1.00;;;;;;;;;;5075656;27;80744;-53
2024/03/24 16:58:37;;;;;;;1.03;0.87;;;;;;;;;;5082397;27;82267;-54
2024/03/24 17:01:05;;;;;;;1.20;0.80;;;;;;;;;;5079793;27;80670;-54
2024/03/24 17:03:32;;;;;;;5.07;1.33;;;;;;;;;;5075076;27;80430;-54
2024/03/24 17:05:59;;;;;;;1.45;0.80;;;;;;;;;;5061145;27;83257;-58
2024/03/24 17:08:24;;;;;;;2.90;0.60;;;;;;;;;;5081782;27;80432;-57
2024/03/24 17:10:49;;;;;;;1.40;0.80;;;;;;;;;;5059512;27;83038;-57
2024/03/24 17:13:15;;;;;;;2.17;0.80;;;;;;;;;;5077985;27;80815;-55
2024/03/24 17:15:40;;;;;;;2.30;0.57;;;;;;;;;;5075579;27;81285;-56
2024/03/24 17:18:05;;;;;;;1.20;0.60;;;;;;;;;;5077163;27;80521;-56
2024/03/24 17:20:30;;;;;;;0.13;0.13;;;;;;;;;;5075724;27;80704;-56
2024/03/24 17:22:56;;;;;;;0.50;0.47;;;;;;;;;;5067821;27;81014;-56
2024/03/24 17:25:22;;;;;;;1.10;0.60;;;;;;;;;;5083609;27;80854;-54
2024/03/24 17:27:47;;;;;;;1.50;0.70;;;;;;;;;;5074899;27;80595;-57
2024/03/24 17:30:12;;;;;;;0.47;0.47;;;;;;;;;;5081547;27;81802;-53
2024/03/24 17:32:38;;;;;;;4.43;0.53;;;;;;;;;;5078120;27;80559;-55
2024/03/24 17:35:03;;;;;;;1.70;0.60;;;;;;;;;;5082480;27;80474;-54
2024/03/24 17:37:28;;;;;;;0.60;0.50;;;;;;;;;;5078439;27;81011;-53
2024/03/24 17:39:54;;;;;;;0.90;0.60;;;;;;;;;;5080458;27;80816;-55
2024/03/24 17:42:20;;;;;;;1.05;0.63;;;;;;;;;;5076806;27;81756;-57
2024/03/24 17:44:45;;;;;;;0.40;0.40;;;;;;;;;;5076530;27;80536;-55
2024/03/24 17:47:11;;;;;;;0.90;0.43;;;;;;;;;;5073935;27;80812;-54
2024/03/24 17:49:36;;;;;;;3.40;0.77;;;;;;;;;;5079284;27;80413;-55
2024/03/24 17:52:02;;;;;;;0.50;0.40;;;;;;;;;;5080989;27;80478;-54
2024/03/24 17:54:28;;;;;;;1.40;0.70;;;;;;;;;;5078780;27;81432;-57
2024/03/24 17:56:54;;;;;;;0.90;0.60;;;;;;;;;;5056775;27;83272;-56
2024/03/24 17:59:22;;;;;;;1.75;0.55;;;;;;;;;;5070460;27;80508;-57
2024/03/24 18:01:47;;;;;;;1.20;0.55;;;;;;;;;;5063165;27;80491;-55
2024/03/24 18:04:13;;;;;;;2.80;1.05;;;;;;;;;;5064361;27;80758;-57
2024/03/24 18:06:49;;;;;;;0.40;0.30;;;;;;;;;;5063896;27;80882;-56
2024/03/24 18:11:58;;;;;;;4.15;0.63;;;;;;;;;;5065957;27;80505;-59
2024/03/24 18:14:23;;;;;;;2.67;0.60;;;;;;;;;;5067988;27;80651;-56
2024/03/24 18:16:48;;;;;;;0.60;0.60;;;;;;;;;;5060502;27;80664;-56
2024/03/24 18:19:13;;;;;;;3.47;1.20;;;;;;;;;;5053337;27;81713;-57
2024/03/24 18:21:39;;;;;;;7.50;1.10;;;;;;;;;;5064371;27;80831;-57
2024/03/24 18:24:05;;;;;;;2.37;1.23;;;;;;;;;;5067024;27;80736;-55
2024/03/24 18:26:30;;;;;;;1.77;0.82;;;;;;;;;;5044761;27;81460;-55
2024/03/24 18:28:55;;;;;;;3.17;1.07;;;;;;;;;;5062231;27;81028;-56
2024/03/24 18:31:21;;;;;;;1.23;1.13;;;;;;;;;;5063569;27;81132;-54
2024/03/24 18:33:46;;;;;;;1.43;0.73;;;;;;;;;;5064245;27;80642;-55
2024/03/24 18:36:12;;;;;;;3.00;0.60;;;;;;;;;;5049164;27;81046;-56
2024/03/24 18:38:38;;;;;;;1.83;0.73;;;;;;;;;;5062058;27;80729;-54
2024/03/24 18:41:03;;;;;;;1.20;0.43;;;;;;;;;;5062649;27;81009;-55
2024/03/24 18:43:29;;;;;;;0.80;0.80;;;;;;;;;;5059475;27;80978;-53
2024/03/24 18:45:54;;;;;;;0.90;0.60;;;;;;;;;;5062591;27;81301;-54
2024/03/24 18:50:56;;;;;;;1.92;1.00;;;;;;;;;;5070368;22;82149;-59
2024/03/24 18:53:22;;;;;;;1.92;0.88;;;;;;;;;;5000285;28;80817;-58
2024/03/24 18:55:47;;;;;;;1.90;1.23;;;;;;;;;;5000132;28;81037;-57
2024/03/24 18:58:12;;;;;;;2.33;0.97;;;;;;;;;;5007511;28;80678;-59
2024/03/24 19:00:38;;;;;;;1.37;1.27;;;;;;;;;;4999490;28;80942;-61
2024/03/24 19:03:07;;;;;;;1.45;0.85;;;;;;;;;;4999668;28;81822;-59
2024/03/24 19:05:32;;;;;;;6.90;1.35;;;;;;;;;;5002993;28;81065;-61
2024/03/24 19:07:57;;;;;;;4.50;1.43;;;;;;;;;;4997175;28;81644;-60
2024/03/24 19:10:22;;;;;;;1.13;1.03;;;;;;;;;;4982276;28;80820;-61
2024/03/24 19:12:48;;;;;;;1.60;1.10;;;;;;;;;;5002319;28;80885;-61
2024/03/24 19:15:19;;;;;;;1.10;1.00;;;;;;;;;;4998828;28;81246;-54
2024/03/24 19:17:44;;;;;;;3.30;1.27;;;;;;;;;;5001228;28;81585;-57
2024/03/24 19:20:13;;;;;;;1.27;1.13;;;;;;;;;;4998895;28;81274;-57
2024/03/24 19:22:39;;;;;;;2.55;1.20;;;;;;;;;;4999246;28;80560;-59
2024/03/24 19:25:04;;;;;;;3.33;1.57;;;;;;;;;;5001174;28;80704;-59
2024/03/24 19:27:29;;;;;;;3.07;1.50;;;;;;;;;;5001093;28;80706;-56
2024/03/24 19:29:55;;;;;;;6.30;0.83;;;;;;;;;;5003589;28;81301;-60
2024/03/24 19:32:24;;;;;;;9.45;1.60;;;;;;;;;;5004420;28;80582;-55
2024/03/24 19:34:49;;;;;;;3.33;1.38;;;;;;;;;;4998727;28;80859;-58
2024/03/24 19:37:23;;;;;;;0.85;0.85;;;;;;;;;;4997606;28;80896;-55
2024/03/24 19:39:48;;;;;;;4.43;1.38;;;;;;;;;;5001857;28;80977;-55
2024/03/24 19:42:13;;;;;;;3.10;1.50;;;;;;;;;;5000855;28;80633;-58
2024/03/24 19:44:38;;;;;;;3.13;1.60;;;;;;;;;;4994327;28;80535;-58
2024/03/24 19:47:04;;;;;;;4.47;1.43;;;;;;;;;;4982793;28;81450;-59
2024/03/24 19:49:30;;;;;;;0.70;0.70;;;;;;;;;;5000808;28;81244;-57
2024/03/24 19:51:56;;;;;;;3.87;1.43;;;;;;;;;;4999616;28;81344;-58
2024/03/24 19:54:22;;;;;;;5.03;1.33;;;;;;;;;;4981402;28;80676;-56
2024/03/24 19:56:47;;;;;;;1.75;1.38;;;;;;;;;;5000091;28;80623;-57
2024/03/24 19:59:13;;;;;;;5.90;1.50;;;;;;;;;;4999106;28;80854;-56
2024/03/24 20:01:38;;;;;;;4.80;1.67;;;;;;;;;;5003696;28;80734;-58
2024/03/24 20:04:04;;;;;;;1.87;1.13;;;;;;;;;;4982722;28;80618;-57
2024/03/24 20:06:29;;;;;;;8.27;1.93;;;;;;;;;;4985673;28;81585;-59
2024/03/24 20:08:54;;;;;;;2.47;0.93;;;;;;;;;;5000757;28;81065;-56
2024/03/24 20:11:19;;;;;;;2.60;1.47;;;;;;;;;;5000933;28;81088;-61
2024/03/24 20:13:45;;;;;;;8.77;1.27;;;;;;;;;;4996697;28;80614;-59
2024/03/24 20:16:10;;;;;;;3.97;1.60;;;;;;;;;;4997927;28;80959;-56
2024/03/24 20:18:36;;;;;;;1.30;1.17;;;;;;;;;;4999679;28;81337;-57
2024/03/24 20:21:03;;;;;;;3.40;1.53;;;;;;;;;;5000307;28;80717;-57
2024/03/24 20:23:29;;;;;;;1.20;1.02;;;;;;;;;;5002953;28;81258;-58
2024/03/24 20:25:54;;;;;;;7.97;1.80;;;;;;;;;;5000823;28;81145;-58
2024/03/24 20:28:19;;;;;;;5.57;1.87;;;;;;;;;;5003919;28;80867;-60
2024/03/24 20:30:44;;;;;;;2.97;1.63;;;;;;;;;;5000269;28;83702;-58
2024/03/24 20:33:10;;;;;;;3.40;1.80;;;;;;;;;;4984795;28;80766;-57
2024/03/24 20:35:35;;;;;;;1.47;1.37;;;;;;;;;;4999801;28;81195;-59
2024/03/24 20:38:03;;;;;;;1.85;1.38;;;;;;;;;;4997235;28;80555;-56
2024/03/24 20:40:28;;;;;;;5.28;1.45;;;;;;;;;;4996770;28;80958;-59
2024/03/24 20:42:53;;;;;;;3.60;1.35;;;;;;;;;;4995688;28;81231;-57
2024/03/24 20:45:19;;;;;;;2.00;1.30;;;;;;;;;;5003328;28;80669;-58
2024/03/24 20:47:45;;;;;;;2.33;1.20;;;;;;;;;;5000885;28;80989;-56
2024/03/24 20:50:11;;;;;;;11.80;1.65;;;;;;;;;;4999826;28;82160;-58
2024/03/24 20:52:36;;;;;;;2.00;1.00;;;;;;;;;;4995077;28;82689;-58
2024/03/24 20:55:02;;;;;;;3.33;1.37;;;;;;;;;;4981858;28;81601;-57
2024/03/24 20:57:28;;;;;;;2.93;1.13;;;;;;;;;;4999910;28;82213;-60
2024/03/24 20:59:53;;;;;;;2.40;1.10;;;;;;;;;;4999070;28;82069;-59
2024/03/24 21:02:18;;;;;;;2.60;1.10;;;;;;;;;;4998590;28;82710;-57
2024/03/24 21:04:44;;;;;;;1.07;0.60;;;;;;;;;;5006665;28;81950;-58
2024/03/24 21:07:09;;;;;;;3.77;1.10;;;;;;;;;;4998385;28;81840;-58
2024/03/24 21:09:34;;;;;;;0.70;0.60;;;;;;;;;;4983689;28;82657;-54
2024/03/24 21:12:00;;;;;;;2.10;1.20;;;;;;;;;;5004752;28;82048;-56
2024/03/24 21:14:25;;;;;;;2.37;1.27;;;;;;;;;;4982550;28;82000;-56
2024/03/24 21:16:50;;;;;;;5.00;1.43;;;;;;;;;;5005099;28;82296;-59
2024/03/24 21:19:15;;;;;;;3.00;0.90;;;;;;;;;;4999233;28;82116;-57
2024/03/24 21:21:44;;;;;;;1.77;1.10;;;;;;;;;;5000141;28;82237;-59
2024/03/24 21:24:15;;;;;;;3.07;0.90;;;;;;;;;;5001479;28;82288;-57
2024/03/24 21:26:40;;;;;;;6.80;1.00;;;;;;;;;;4998864;28;83120;-58
2024/03/24 21:29:05;;;;;;;1.90;0.80;;;;;;;;;;4999204;28;83510;-58
2024/03/24 21:31:30;;;;;;;4.23;1.50;;;;;;;;;;5000737;28;82914;-57
2024/03/24 21:33:56;;;;;;;2.00;1.10;;;;;;;;;;5001856;28;82275;-53
2024/03/24 21:36:21;;;;;;;1.30;1.10;;;;;;;;;;4997799;28;82483;-57
2024/03/24 21:44:14;;;;;;;2.50;1.30;;;;;;;;;;4997738;28;81031;-56
2024/03/24 21:46:44;;;;;;;4.00;1.50;;;;;;;;;;4999650;28;82404;-57
2024/03/24 21:49:09;;;;;;;2.10;0.67;;;;;;;;;;4999858;28;82011;-60
2024/03/24 21:51:34;;;;;;;1.83;0.83;;;;;;;;;;4991933;28;83511;-63
2024/03/24 21:53:59;;;;;;;2.90;0.47;;;;;;;;;;4995606;28;81980;-56
2024/03/24 21:56:25;;;;;;;1.30;0.80;;;;;;;;;;4994949;28;82536;-56
2024/03/24 21:58:53;;;;;;;1.38;0.88;;;;;;;;;;4996669;28;81957;-60
2024/03/24 22:01:19;;;;;;;2.57;0.80;;;;;;;;;;4978031;28;82034;-56
2024/03/24 22:03:44;;;;;;;1.73;0.73;;;;;;;;;;5000817;28;82620;-57
2024/03/24 22:06:09;;;;;;;0.63;0.60;;;;;;;;;;5000502;28;82023;-58
